Weather observations for the past three days for
Vernal Airport
Imperial (Metric)
Date Time (mdt) Wind (mph) Vis. (mi.) Weather Sky Cond. Temperature (ºF) Relative Humidity Wind Chill (°F) Heat Index (°F) Pressure Precipitation (in)
Air Dwpt 6 hour altimeter (in) sea level (mb) 1 hr 3 hr 6 hr
Max. Min.
10 01:53 N 7 10.00 Fair CLR 52 25 35% 30.2 1017.8
10 00:53 NE 16 10.00 Fair CLR 55 27 34% 30.18 1016.8
09 23:53 N 7 10.00 Fair CLR 55.9 28.9 77 55 36% 30.17 1016.8
09 22:53 N 7 10.00 Fair CLR 57 25 29% 30.15 1015.8
09 21:53 N 7 10.00 Fair CLR 62.1 14 15% 30.1 1014.1
09 20:53 NW 13 10.00 Fair CLR 66 10.9 11% 30.06 1012.9
09 19:53 N 23 G 37 10.00 Fair and Breezy CLR 68 10.9 11% 30.01 1011.3
09 18:53 NW 18 G 32 10.00 Fair CLR 73 8.1 8% 29.97 1010.3
09 17:53 N 10 G 21 10.00 Fair CLR 77 16 79 70 10% 76 29.95 1008.9
09 16:53 NE 12 10.00 Fair CLR 75.9 14 9% 75 29.94 1008.6
09 15:53 W 8 G 21 10.00 Fair CLR 78.1 14 9% 77 29.96 1008.7
09 14:53 Calm 10.00 Fair CLR 75 15.1 10% 75 29.99 1010.0
09 13:53 Calm 10.00 Fair CLR 73 15.1 11% 30.01 1010.8
09 12:53 S 10 10.00 Fair CLR 73 19.9 13% 30.03 1011.9
09 11:53 E 6 10.00 Fair CLR 70 18 71.1 43 14% 30.04 1012.4
09 10:53 S 9 10.00 Fair CLR 68 24.1 19% 30.05 1012.1
09 09:53 SE 7 10.00 Fair CLR 64.9 32 29% 30.05 1012.2
09 08:53 SE 6 10.00 Fair CLR 60.1 30 32% 30.05 1012.3
09 07:53 NE 5 10.00 Fair CLR 55 30.9 40% 30.04 1012.4
09 06:53 NW 6 10.00 Fair CLR 46 32 58% 44 30.02 1012.1
09 05:53 NW 6 10.00 Fair CLR 48.9 32 55.9 46.9 52% 47 30 1010.6
09 04:53 SW 3 10.00 Fair CLR 52 32 47% 29.99 1010.3
09 03:53 W 5 10.00 Fair CLR 54 30 40% 29.99 1010.0
09 02:53 W 7 10.00 Fair CLR 52 30.9 45% 29.98 1010.0
09 01:53 NW 7 10.00 Fair CLR 54 30 40% 29.98 1009.9
09 00:53 N 7 10.00 Fair CLR 51.1 34 52% 29.99 1010.7
08 23:53 W 5 10.00 Fair CLR 53.1 32 78.1 53.1 45% 29.99 1010.8
08 22:53 W 6 10.00 Fair CLR 62.1 27 26% 29.98 1009.9
08 21:53 NW 7 10.00 Fair CLR 64.9 26.1 23% 29.96 1009.6
08 20:53 N 12 G 20 10.00 Fair CLR 68 26.1 21% 29.93 1008.7
08 19:53 SW 8 10.00 Fair CLR 69.1 27 21% 29.89 1007.3
08 18:53 W 15 G 24 10.00 Fair CLR 73.9 26.1 17% 29.89 1007.5
08 17:53 Calm 10.00 Partly Cloudy SCT120 77 26.1 77 66.9 15% 76 29.89 1007.7
08 16:53 E 8 10.00 A Few Clouds FEW120 75 26.1 16% 76 29.91 1008.1
08 15:53 Calm 10.00 Fair CLR 75 26.1 16% 76 29.93 1008.9
08 14:53 Vrbl 5 10.00 Fair CLR 73 21 14% 29.96 1009.7
08 13:53 Vrbl 5 10.00 Fair CLR 73 26.1 17% 29.98 1010.7
08 12:53 Calm 10.00 Fair CLR 70 30 23% 30 1011.7
08 11:53 Vrbl 5 10.00 Fair CLR 66 33.1 66 39.9 29% 30.02 1012.9
08 10:53 S 6 10.00 Fair CLR 63 32 31% 30.04 1013.3
08 09:53 Calm 10.00 Fair CLR 59 33.1 38% 30.04 1013.5
08 08:53 SE 3 10.00 Fair CLR 54 34 47% 30.04 1013.6
08 07:53 NE 5 10.00 Fair CLR 52 37 57% 30.04 1013.1
08 06:53 NW 3 10.00 Fair CLR 45 33.1 63% 30.02 1012.9
08 05:53 Calm 10.00 Fair CLR 39.9 33.1 50 39.9 77% 30.01 1012.8
08 04:53 Calm 10.00 Fair CLR 43 33.1 68% 30.01 1012.6
08 03:53 NW 3 10.00 Fair CLR 45 32 61% 30 1012.3
08 02:53 W 3 10.00 Fair CLR 46 33.1 61% 30 1012.5
08 01:53 W 5 10.00 Fair CLR 45 33.1 63% 43 30 1012.8
08 00:53 W 3 10.00 Fair CLR 46 33.1 61% 30 1013.0
07 23:53 W 5 10.00 Fair CLR 45 36 66 44.1 71% 43 30 1013.5
07 22:53 NW 3 10.00 Fair CLR 48.9 37 64% 30 1013.4
07 21:53 W 8 10.00 Fair CLR 50 37.9 63% 47 30.01 1013.7
07 20:53 Calm 10.00 Fair CLR 55.9 35.1 46% 29.98 1012.2
07 18:53 E 5 10.00 Fair CLR 64 33.1 32% 29.96 1011.5
07 17:53 Vrbl 3 10.00 Fair CLR 64.9 30.9 66 51.1 28% 29.97 1011.8
07 16:53 Calm 10.00 Fair CLR 64 32 30% 29.97 1012.1
07 15:53 Vrbl 3 10.00 A Few Clouds FEW110 63 30 29% 30 1013.2
07 14:53 Calm 10.00 A Few Clouds FEW090 60.1 30 32% 30.03 1014.7
07 13:53 N 9 10.00 Partly Cloudy FEW100 SCT120 59 30.9 35% 30.07 1015.6
07 12:53 Vrbl 6 10.00 Mostly Cloudy SCT100 BKN120 55.9 30.9 39% 30.1 1017.0
07 11:53 Vrbl 6 10.00 Overcast FEW034 BKN070 OVC090 51.1 30 51.1 35.1 45% 30.12 1018.3
07 10:53 Calm 10.00 A Few Clouds FEW100 48.9 30 48% 30.14 1018.9
07 09:53 Vrbl 3 10.00 Mostly Cloudy BKN110 48 28.9 48% 30.16 1019.9
07 08:53 Calm 10.00 Mostly Cloudy BKN100 46 26.1 46% 30.17 1020.0
07 07:53 Calm 10.00 Partly Cloudy SCT110 43 30 60% 30.16 1019.4
07 06:53 N 5 10.00 Fair CLR 37.9 30.9 76% 35 30.15 1019.5
07 05:53 Calm 10.00 Fair CLR 37 28.9 42.1 35.1 73% 30.15 1019.5
07 04:53 W 3 10.00 Fair CLR 37 30 76% 30.15 1019.5
07 03:53 W 6 10.00 Fair CLR 37.9 30 73% 34 30.15 1019.4
07 02:53 NW 5 10.00 Fair CLR 37.9 30.9 76% 35 30.16 1019.9
Date Time (mdt) Wind (mph) Vis. (mi.) Weather Sky Cond. Air Dwpt Max. Min. Relative Humidity Wind Chill (°F) Heat Index (°F) altimeter (in) sea level (mb) 1 hr 3 hr 6 hr
6 hour
Temperature (ºF) Pressure Precipitation (in)